Time;durP1;ratioP1;P1;durP2;ratioP2;P2;SDS_P1;SDS_P2;PMS_P1;PMS_P2;Temp;Humidity;BMP_temperature;BMP_pressure;BME280_temperature;BME280_humidity;BME280_pressure;Samples;Min_cycle;Max_cycle;Signal;HPM_P1;HPM_P2
2021/07/15 00:01:14;;;;;;;9.38;8.13;;;17.40;99.90;;;;;;5032488;28;20030;-48
2021/07/15 00:03:40;;;;;;;10.40;9.32;;;17.40;99.90;;;;;;5032470;28;20041;-49
2021/07/15 00:06:06;;;;;;;7.40;6.70;;;17.40;99.90;;;;;;5031062;28;20032;-46
2021/07/15 00:08:31;;;;;;;7.50;6.78;;;17.40;99.90;;;;;;5032451;28;20500;-50
2021/07/15 00:11:00;;;;;;;9.60;8.65;;;17.40;99.90;;;;;;5032262;28;20394;-45
2021/07/15 00:13:27;;;;;;;8.82;7.78;;;17.40;99.90;;;;;;5032347;28;20085;-47
2021/07/15 00:15:55;;;;;;;7.80;7.05;;;17.40;99.90;;;;;;5032530;28;20029;-46
2021/07/15 00:18:25;;;;;;;8.50;7.70;;;17.40;99.90;;;;;;5032246;28;20034;-47
2021/07/15 00:20:51;;;;;;;9.13;8.23;;;17.50;99.90;;;;;;5031034;28;20051;-43
2021/07/15 00:23:16;;;;;;;8.52;7.72;;;17.40;99.90;;;;;;5032162;28;20525;-46
2021/07/15 00:25:45;;;;;;;8.63;7.72;;;17.40;99.90;;;;;;5032315;28;20036;-45
2021/07/15 00:28:11;;;;;;;9.85;8.70;;;17.30;99.90;;;;;;5032227;28;20441;-47
2021/07/15 00:30:36;;;;;;;8.57;7.75;;;17.30;99.90;;;;;;5033854;28;20053;-49
2021/07/15 00:33:04;;;;;;;9.05;8.18;;;17.20;99.90;;;;;;5035812;28;20072;-43
2021/07/15 00:35:30;;;;;;;8.95;8.05;;;17.20;99.90;;;;;;5034501;28;20030;-45
2021/07/15 00:37:56;;;;;;;9.73;8.75;;;17.10;99.90;;;;;;5035559;28;20465;-48
2021/07/15 00:40:21;;;;;;;11.02;9.10;;;17.00;99.90;;;;;;5035679;28;20063;-45
2021/07/15 00:42:47;;;;;;;9.30;7.65;;;16.90;99.90;;;;;;5035580;28;20069;-45
2021/07/15 00:45:14;;;;;;;8.95;8.15;;;16.90;99.90;;;;;;5035538;28;20029;-49
2021/07/15 00:47:40;;;;;;;8.52;7.72;;;16.80;99.90;;;;;;5035563;28;20056;-45
2021/07/15 00:50:08;;;;;;;12.52;9.68;;;16.80;99.90;;;;;;5035773;28;20057;-47
2021/07/15 00:52:35;;;;;;;10.25;8.95;;;16.70;99.90;;;;;;5034088;28;20021;-46
2021/07/15 00:55:01;;;;;;;9.73;8.45;;;16.70;99.90;;;;;;5035376;28;20029;-46
2021/07/15 00:57:26;;;;;;;10.38;9.15;;;16.60;99.90;;;;;;5035250;28;20083;-45
2021/07/15 00:59:53;;;;;;;8.10;7.30;;;16.60;99.90;;;;;;5035283;28;20049;-47
2021/07/15 01:02:19;;;;;;;8.00;7.20;;;16.60;99.90;;;;;;5035302;28;20021;-46
2021/07/15 01:04:46;;;;;;;7.70;6.90;;;16.50;99.90;;;;;;5035207;28;20080;-47
2021/07/15 01:07:12;;;;;;;7.32;6.63;;;16.50;99.90;;;;;;5033697;28;20032;-45
2021/07/15 01:09:38;;;;;;;8.50;7.45;;;16.40;99.90;;;;;;5035150;28;20026;-46
2021/07/15 01:12:27;;;;;;;9.55;8.65;;;16.40;99.90;;;;;;5035042;28;20100;-45
2021/07/15 01:15:16;;;;;;;13.30;11.52;;;16.40;99.90;;;;;;5035045;28;20021;-49
2021/07/15 01:17:47;;;;;;;8.80;7.70;;;16.30;99.90;;;;;;5034777;28;20087;-47
2021/07/15 01:20:50;;;;;;;11.90;10.02;;;16.40;99.90;;;;;;5034267;28;20137;-43
2021/07/15 01:23:53;;;;;;;7.78;7.07;;;16.40;99.90;;;;;;5034842;28;20021;-45
2021/07/15 01:26:40;;;;;;;9.05;7.50;;;16.30;99.90;;;;;;5034851;28;20033;-48
2021/07/15 01:29:25;;;;;;;8.75;7.75;;;16.30;99.90;;;;;;5034754;28;20026;-47
2021/07/15 01:31:55;;;;;;;9.57;8.63;;;16.20;99.90;;;;;;5034798;28;20075;-45
2021/07/15 01:34:23;;;;;;;11.77;9.40;;;16.20;99.90;;;;;;5034548;28;20038;-45
2021/07/15 01:36:53;;;;;;;9.05;8.15;;;16.10;99.90;;;;;;5033401;28;20469;-45
2021/07/15 01:39:22;;;;;;;13.15;10.70;;;16.10;99.90;;;;;;5034557;28;20033;-46
2021/07/15 01:41:50;;;;;;;11.45;10.32;;;16.10;99.90;;;;;;5033916;28;20030;-45
2021/07/15 01:44:22;;;;;;;10.18;9.13;;;16.10;99.90;;;;;;5034449;28;20076;-45
2021/07/15 01:46:48;;;;;;;12.38;9.43;;;16.00;99.90;;;;;;5034362;28;20416;-47
2021/07/15 01:49:14;;;;;;;9.80;8.30;;;16.00;99.90;;;;;;5034338;28;20503;-44
2021/07/15 01:51:41;;;;;;;10.32;8.70;;;15.90;99.90;;;;;;5033150;28;20029;-43
2021/07/15 01:54:08;;;;;;;9.30;8.38;;;15.90;99.90;;;;;;5034331;28;20030;-48
2021/07/15 01:56:36;;;;;;;10.88;9.75;;;15.90;99.90;;;;;;5034194;28;20029;-50
2021/07/15 01:59:02;;;;;;;14.18;11.93;;;15.90;99.90;;;;;;5034172;28;20075;-46
2021/07/15 02:01:29;;;;;;;12.00;8.98;;;16.00;99.90;;;;;;5034068;28;20540;-45
2021/07/15 02:03:57;;;;;;;9.55;8.57;;;16.00;99.90;;;;;;5033994;28;20056;-44
2021/07/15 02:06:24;;;;;;;9.15;8.10;;;16.00;99.90;;;;;;5032736;28;20040;-45
2021/07/15 02:08:52;;;;;;;13.80;10.20;;;16.10;99.90;;;;;;5034013;28;20049;-41
2021/07/15 02:11:20;;;;;;;9.05;8.10;;;16.10;99.90;;;;;;5033913;28;20071;-46
2021/07/15 02:13:47;;;;;;;8.02;6.70;;;16.10;99.90;;;;;;5033948;28;20346;-44
2021/07/15 02:16:14;;;;;;;11.52;9.23;;;16.20;99.90;;;;;;5033817;28;20032;-48
2021/07/15 02:18:41;;;;;;;10.80;9.70;;;16.30;99.90;;;;;;5033704;28;20128;-47
2021/07/15 02:21:07;;;;;;;11.32;10.15;;;16.30;99.90;;;;;;5032559;28;20021;-47
2021/07/15 02:23:33;;;;;;;9.88;8.70;;;16.30;99.90;;;;;;5033643;28;20465;-45
2021/07/15 02:25:59;;;;;;;11.95;10.65;;;16.40;99.90;;;;;;5033666;28;20037;-45
2021/07/15 02:28:26;;;;;;;9.68;8.25;;;16.40;99.90;;;;;;5033536;28;20127;-45
2021/07/15 02:31:03;;;;;;;9.13;7.97;;;16.40;99.90;;;;;;5033631;28;20444;-47
2021/07/15 02:33:31;;;;;;;10.82;9.73;;;16.40;99.90;;;;;;5033549;28;20029;-47
2021/07/15 02:36:03;;;;;;;11.73;10.07;;;16.30;99.90;;;;;;5032478;28;20131;-46
2021/07/15 02:38:32;;;;;;;9.23;8.27;;;16.30;99.90;;;;;;5033376;28;20067;-43
2021/07/15 02:40:58;;;;;;;10.85;9.77;;;16.20;99.90;;;;;;5033351;28;20385;-45
2021/07/15 02:43:23;;;;;;;11.63;9.60;;;16.20;99.90;;;;;;5033303;28;20469;-47
2021/07/15 02:45:49;;;;;;;14.25;9.88;;;16.10;99.90;;;;;;5033366;28;20028;-44
2021/07/15 02:48:18;;;;;;;11.70;10.27;;;16.10;99.90;;;;;;5033306;28;20021;-47
2021/07/15 02:50:44;;;;;;;9.88;8.23;;;16.10;99.90;;;;;;5032084;28;20025;-44
2021/07/15 02:53:09;;;;;;;9.88;8.88;;;16.00;99.90;;;;;;5032832;28;20029;-45
2021/07/15 02:55:35;;;;;;;9.60;8.20;;;16.00;99.90;;;;;;5032678;28;20044;-43
2021/07/15 02:58:19;;;;;;;10.15;8.77;;;15.90;99.90;;;;;;5033158;28;20029;-45
2021/07/15 03:00:50;;;;;;;8.90;8.00;;;15.90;99.90;;;;;;5033274;28;20071;-49
2021/07/15 03:03:28;;;;;;;13.07;9.90;;;15.90;99.90;;;;;;5032965;28;20555;-44
2021/07/15 03:06:14;;;;;;;8.68;7.50;;;15.80;99.90;;;;;;5031716;28;20029;-45
2021/07/15 03:09:02;;;;;;;9.82;8.82;;;15.80;99.90;;;;;;5033080;28;20048;-44
2021/07/15 03:11:50;;;;;;;10.20;9.10;;;15.70;99.90;;;;;;5032988;28;20468;-45
2021/07/15 03:14:15;;;;;;;12.70;9.38;;;15.70;99.90;;;;;;5032932;28;20112;-44
2021/07/15 03:16:43;;;;;;;13.27;10.55;;;15.70;99.90;;;;;;5032815;28;20108;-43
2021/07/15 03:19:10;;;;;;;14.45;11.43;;;15.70;99.90;;;;;;5032922;28;20033;-45
2021/07/15 03:21:40;;;;;;;10.35;9.35;;;15.70;99.90;;;;;;5031617;28;20120;-47
2021/07/15 03:24:08;;;;;;;10.85;9.50;;;15.60;99.90;;;;;;5032905;28;20021;-44
2021/07/15 03:26:34;;;;;;;13.40;10.95;;;15.70;99.90;;;;;;5032786;28;20057;-45
2021/07/15 03:29:01;;;;;;;12.55;10.38;;;15.60;99.90;;;;;;5032706;28;20068;-47
2021/07/15 03:31:28;;;;;;;8.18;7.38;;;15.60;99.90;;;;;;5032747;28;20033;-46
2021/07/15 03:33:54;;;;;;;11.73;8.55;;;15.60;99.90;;;;;;5032804;28;20029;-46
2021/07/15 03:36:21;;;;;;;7.93;7.20;;;15.70;99.90;;;;;;5031434;28;20481;-44
2021/07/15 03:38:47;;;;;;;12.45;10.38;;;15.70;99.90;;;;;;5032777;28;20369;-42
2021/07/15 03:41:14;;;;;;;10.90;7.93;;;15.70;99.90;;;;;;5032681;28;20022;-45
2021/07/15 03:43:42;;;;;;;9.85;8.95;;;15.70;99.90;;;;;;5032518;28;20052;-44
2021/07/15 03:46:08;;;;;;;11.07;9.93;;;15.80;99.90;;;;;;5032685;28;20017;-44
2021/07/15 03:48:38;;;;;;;9.40;8.50;;;15.80;99.90;;;;;;5032617;28;20056;-41
2021/07/15 03:51:09;;;;;;;9.65;8.43;;;15.80;99.90;;;;;;5029917;28;20473;-43
2021/07/15 03:53:36;;;;;;;11.10;8.98;;;15.90;99.90;;;;;;5032550;28;20505;-47
2021/07/15 03:56:04;;;;;;;8.95;8.05;;;16.00;99.90;;;;;;5032574;28;20137;-48
2021/07/15 03:58:32;;;;;;;9.48;8.55;;;16.10;99.90;;;;;;5032399;28;20034;-43
2021/07/15 04:01:03;;;;;;;11.25;9.70;;;16.20;99.90;;;;;;5032546;28;20022;-47
2021/07/15 04:03:32;;;;;;;9.98;8.95;;;16.30;99.90;;;;;;5032329;28;20120;-43
2021/07/15 04:06:00;;;;;;;13.35;10.65;;;16.40;99.90;;;;;;5033599;28;20469;-46
2021/07/15 04:08:27;;;;;;;11.43;8.65;;;16.50;99.90;;;;;;5036214;28;20166;-43
2021/07/15 04:10:57;;;;;;;12.02;10.75;;;16.60;99.90;;;;;;5036129;28;20508;-43
2021/07/15 04:13:26;;;;;;;8.60;7.70;;;16.70;99.90;;;;;;5036119;28;20535;-45
2021/07/15 04:15:54;;;;;;;10.85;7.85;;;16.70;99.90;;;;;;5036165;28;20441;-44
2021/07/15 04:18:25;;;;;;;8.23;7.25;;;16.80;99.90;;;;;;5035992;28;20496;-45
2021/07/15 04:20:51;;;;;;;8.82;7.80;;;16.90;99.90;;;;;;5034740;28;20053;-46
2021/07/15 04:23:19;;;;;;;10.15;8.90;;;17.00;99.90;;;;;;5035935;28;20022;-45
2021/07/15 04:25:46;;;;;;;7.95;6.90;;;17.00;99.90;;;;;;5035963;28;20469;-43
2021/07/15 04:28:14;;;;;;;8.48;7.43;;;17.10;99.90;;;;;;5035946;28;20076;-46
2021/07/15 04:30:39;;;;;;;8.80;7.90;;;17.20;99.90;;;;;;5035857;28;20037;-44
2021/07/15 04:33:09;;;;;;;9.48;8.52;;;17.20;99.90;;;;;;5035907;28;20037;-47
2021/07/15 04:35:36;;;;;;;10.00;8.80;;;17.30;99.90;;;;;;5034513;28;20032;-47
2021/07/15 04:38:03;;;;;;;11.88;9.77;;;17.40;99.90;;;;;;5035605;28;20072;-43
2021/07/15 04:40:29;;;;;;;7.60;6.80;;;17.40;99.90;;;;;;5035648;28;20029;-42
2021/07/15 04:43:10;;;;;;;11.00;8.65;;;17.40;99.90;;;;;;5035726;28;20029;-44
2021/07/15 04:45:40;;;;;;;10.13;9.13;;;17.50;99.90;;;;;;5035564;28;20029;-44
2021/07/15 04:48:06;;;;;;;10.30;9.30;;;17.60;99.90;;;;;;5035647;28;20027;-46
2021/07/15 04:50:35;;;;;;;8.88;7.72;;;17.70;99.90;;;;;;5034081;28;20021;-46
2021/07/15 04:53:06;;;;;;;10.23;8.32;;;17.80;99.90;;;;;;5035511;28;20098;-44
2021/07/15 04:55:32;;;;;;;8.40;7.07;;;17.80;99.90;;;;;;5035393;28;20033;-43
2021/07/15 04:58:01;;;;;;;10.07;9.13;;;17.90;99.90;;;;;;5035352;28;20492;-44
2021/07/15 05:00:27;;;;;;;8.13;7.32;;;18.00;99.90;;;;;;5035290;28;20056;-48
2021/07/15 05:03:00;;;;;;;9.23;8.35;;;18.10;99.90;;;;;;5035109;28;20061;-44
2021/07/15 05:05:26;;;;;;;9.38;8.43;;;18.20;99.90;;;;;;5034023;28;20416;-44
2021/07/15 05:07:51;;;;;;;8.68;7.47;;;18.30;99.90;;;;;;5035192;28;20033;-46
2021/07/15 05:10:17;;;;;;;8.45;7.32;;;18.40;99.90;;;;;;5035242;28;20032;-43
2021/07/15 05:12:43;;;;;;;8.02;7.22;;;18.50;99.90;;;;;;5035118;28;20253;-43
2021/07/15 05:15:11;;;;;;;7.55;6.85;;;18.50;99.90;;;;;;5035112;28;20461;-44
2021/07/15 05:17:37;;;;;;;6.90;6.28;;;18.60;99.90;;;;;;5033885;28;20400;-47
2021/07/15 05:20:07;;;;;;;9.55;7.00;;;18.70;99.90;;;;;;5034937;28;20087;-41
2021/07/15 05:22:33;;;;;;;9.18;7.63;;;18.80;99.90;;;;;;5034583;28;20022;-49
2021/07/15 05:24:59;;;;;;;7.28;5.85;;;18.90;99.90;;;;;;5034960;28;20079;-44
2021/07/15 05:27:24;;;;;;;7.90;6.90;;;19.10;99.90;;;;;;5034897;28;20112;-46
2021/07/15 05:29:50;;;;;;;7.93;5.70;;;19.20;99.90;;;;;;5034758;28;20100;-46
2021/07/15 05:32:15;;;;;;;6.05;5.45;;;19.30;99.90;;;;;;5034781;28;20472;-42
2021/07/15 05:34:41;;;;;;;8.68;7.18;;;19.50;99.90;;;;;;5034644;28;20491;-41
2021/07/15 05:37:07;;;;;;;6.78;6.07;;;19.60;99.90;;;;;;5032011;28;20029;-47
2021/07/15 05:39:32;;;;;;;6.25;5.70;;;19.80;99.90;;;;;;5034591;28;20021;-43
2021/07/15 05:41:58;;;;;;;8.57;5.78;;;20.20;99.90;;;;;;5034606;28;20017;-46
2021/07/15 05:44:24;;;;;;;6.13;5.43;;;20.60;99.90;;;;;;5034488;28;20028;-45
2021/07/15 05:46:49;;;;;;;6.18;5.50;;;20.70;99.90;;;;;;5034552;28;20071;-44
2021/07/15 05:49:15;;;;;;;5.70;5.10;;;20.80;99.90;;;;;;5034422;28;20033;-46
2021/07/15 05:51:46;;;;;;;6.80;6.20;;;20.90;99.90;;;;;;5033051;28;20064;-43
2021/07/15 05:54:15;;;;;;;6.88;5.38;;;20.80;99.90;;;;;;5034415;28;20033;-47
2021/07/15 05:56:40;;;;;;;5.40;4.88;;;20.80;99.90;;;;;;5034280;28;20353;-44
2021/07/15 05:59:06;;;;;;;6.10;5.50;;;21.10;99.90;;;;;;5034101;28;20040;-46
2021/07/15 06:01:31;;;;;;;6.25;5.03;;;21.40;99.90;;;;;;5034153;28;20040;-44
2021/07/15 06:03:57;;;;;;;5.13;4.72;;;22.00;99.90;;;;;;5034040;28;20072;-43
2021/07/15 06:06:22;;;;;;;5.50;5.00;;;22.80;99.90;;;;;;5032854;28;20390;-44
2021/07/15 06:08:48;;;;;;;5.75;5.15;;;23.40;99.90;;;;;;5034074;28;20026;-42
2021/07/15 06:11:14;;;;;;;5.43;4.50;;;24.80;99.90;;;;;;5034070;28;20026;-47
2021/07/15 06:13:39;;;;;;;7.40;4.50;;;25.20;99.90;;;;;;5033863;28;20022;-44
2021/07/15 06:16:05;;;;;;;8.80;4.80;;;24.80;99.90;;;;;;5033845;28;20097;-44
2021/07/15 06:18:31;;;;;;;5.20;4.70;;;24.30;99.90;;;;;;5033800;28;20127;-43
2021/07/15 06:20:57;;;;;;;4.45;4.03;;;23.90;99.90;;;;;;5032511;28;20033;-43
2021/07/15 06:23:22;;;;;;;5.10;4.53;;;23.60;99.90;;;;;;5033749;28;20416;-43
2021/07/15 06:25:48;;;;;;;4.93;4.53;;;23.30;99.90;;;;;;5033687;28;20426;-45
2021/07/15 06:28:13;;;;;;;4.28;3.88;;;22.90;99.90;;;;;;5033646;28;20029;-48
2021/07/15 06:30:39;;;;;;;4.50;4.10;;;22.70;99.90;;;;;;5033565;28;20104;-44
2021/07/15 06:33:04;;;;;;;5.20;4.70;;;22.50;99.90;;;;;;5033620;28;20030;-42
2021/07/15 06:35:31;;;;;;;3.80;3.50;;;22.40;99.90;;;;;;5032501;28;20018;-43
2021/07/15 06:37:57;;;;;;;4.50;4.10;;;22.40;99.90;;;;;;5033394;28;20036;-47
2021/07/15 06:40:23;;;;;;;5.13;3.88;;;22.60;99.90;;;;;;5033494;28;20392;-42
2021/07/15 06:42:49;;;;;;;4.03;3.63;;;23.20;99.90;;;;;;5033398;28;20030;-46
2021/07/15 06:45:15;;;;;;;6.60;3.60;;;23.90;99.90;;;;;;5033359;28;20063;-42
2021/07/15 06:47:42;;;;;;;4.15;3.85;;;24.90;99.90;;;;;;5033302;28;20124;-43
2021/07/15 06:50:10;;;;;;;4.18;3.67;;;26.30;99.90;;;;;;5031891;28;20021;-43
2021/07/15 06:52:36;;;;;;;11.65;4.47;;;28.00;99.90;;;;;;5033233;28;20021;-45
2021/07/15 06:55:03;;;;;;;6.50;3.80;;;28.60;99.90;;;;;;5033191;28;20128;-44
2021/07/15 06:57:29;;;;;;;3.50;2.90;;;28.30;99.90;;;;;;5033074;28;20104;-46
2021/07/15 06:59:55;;;;;;;2.95;2.65;;;28.00;99.90;;;;;;5033020;28;20449;-47
2021/07/15 07:02:20;;;;;;;3.17;2.88;;;28.80;99.90;;;;;;5032980;28;20033;-45
2021/07/15 07:04:46;;;;;;;3.15;2.80;;;29.20;99.90;;;;;;5033037;28;20029;-46
2021/07/15 07:07:12;;;;;;;2.75;2.55;;;30.10;99.90;;;;;;5031782;28;20029;-44
2021/07/15 07:09:37;;;;;;;3.55;2.60;;;31.70;99.90;;;;;;5033023;28;20076;-42
2021/07/15 07:12:03;;;;;;;2.63;2.42;;;32.80;99.90;;;;;;5032960;28;20021;-44
2021/07/15 07:14:29;;;;;;;2.22;2.03;;;32.50;99.90;;;;;;5032839;28;20061;-46
2021/07/15 07:16:54;;;;;;;2.05;1.95;;;31.70;99.90;;;;;;5032903;28;20029;-45
2021/07/15 07:19:20;;;;;;;4.25;2.40;;;31.20;99.90;;;;;;5032841;28;20384;-43
2021/07/15 07:21:45;;;;;;;3.83;1.90;;;30.60;99.90;;;;;;5031511;28;20485;-43
2021/07/15 07:24:11;;;;;;;2.72;2.33;;;30.10;99.90;;;;;;5032857;28;20018;-42
2021/07/15 07:26:36;;;;;;;2.50;2.30;;;29.90;99.90;;;;;;5032886;28;20018;-43
2021/07/15 07:29:02;;;;;;;2.42;2.22;;;29.80;99.90;;;;;;5032676;28;20025;-51
2021/07/15 07:31:28;;;;;;;2.47;1.80;;;29.70;99.90;;;;;;5031583;28;20025;-48
2021/07/15 07:33:54;;;;;;;2.10;1.92;;;30.10;99.90;;;;;;5031475;28;20453;-44
2021/07/15 07:36:19;;;;;;;4.22;2.50;;;30.10;99.90;;;;;;5031502;28;20362;-44
2021/07/15 07:38:45;;;;;;;2.78;1.85;;;30.50;99.90;;;;;;5032615;28;20071;-43
2021/07/15 07:41:11;;;;;;;2.05;1.88;;;31.10;99.90;;;;;;5035409;28;20104;-42
2021/07/15 07:43:37;;;;;;;1.95;1.85;;;31.90;99.60;;;;;;5036678;28;20034;-42
2021/07/15 07:46:04;;;;;;;2.50;2.03;;;32.50;98.50;;;;;;5036715;28;20021;-44
2021/07/15 07:48:30;;;;;;;2.90;1.88;;;33.00;95.60;;;;;;5036772;28;20063;-44
2021/07/15 07:50:58;;;;;;;2.08;1.98;;;33.50;93.00;;;;;;5035251;28;20455;-42
2021/07/15 07:53:25;;;;;;;2.13;1.92;;;33.50;92.10;;;;;;5036683;28;20056;-42
2021/07/15 07:55:51;;;;;;;1.90;1.80;;;33.50;91.10;;;;;;5036530;28;20028;-44
2021/07/15 07:58:16;;;;;;;2.70;2.50;;;33.40;89.50;;;;;;5036353;28;20382;-43
2021/07/15 08:00:42;;;;;;;1.58;1.48;;;34.10;87.70;;;;;;5036383;28;20080;-43
2021/07/15 08:03:08;;;;;;;6.13;2.00;;;35.00;81.70;;;;;;5036342;28;20103;-43
2021/07/15 08:05:38;;;;;;;2.85;1.80;;;35.90;77.40;;;;;;5035097;28;20116;-45
2021/07/15 08:08:04;;;;;;;1.90;1.80;;;37.00;73.30;;;;;;5036276;28;20024;-44
2021/07/15 08:10:29;;;;;;;1.80;1.70;;;38.00;65.00;;;;;;5036376;28;20022;-44
2021/07/15 08:12:55;;;;;;;1.65;1.55;;;38.70;64.00;;;;;;5036220;28;20327;-44
2021/07/15 08:15:20;;;;;;;2.75;1.70;;;39.20;59.40;;;;;;5036172;28;20109;-44
2021/07/15 08:17:46;;;;;;;1.63;1.52;;;39.20;56.30;;;;;;5036014;28;20091;-45
2021/07/15 08:20:12;;;;;;;1.60;1.50;;;39.70;53.90;;;;;;5034796;28;20104;-45
2021/07/15 08:22:39;;;;;;;1.60;1.50;;;40.00;51.70;;;;;;5036274;28;20096;-42
2021/07/15 08:25:05;;;;;;;3.05;1.70;;;40.20;49.50;;;;;;5035904;28;20035;-44
2021/07/15 08:27:31;;;;;;;1.60;1.50;;;40.60;48.30;;;;;;5035881;28;20634;-43
2021/07/15 08:29:57;;;;;;;1.75;1.65;;;40.70;45.50;;;;;;5035911;28;20022;-43
2021/07/15 08:32:22;;;;;;;1.60;1.50;;;41.10;44.60;;;;;;5035855;28;20074;-45
2021/07/15 08:34:48;;;;;;;1.65;1.40;;;41.00;42.70;;;;;;5035811;28;20033;-44
2021/07/15 08:37:13;;;;;;;1.70;1.60;;;40.90;41.10;;;;;;5034364;28;20037;-44
2021/07/15 08:39:39;;;;;;;1.77;1.67;;;40.70;40.60;;;;;;5035723;28;20049;-45
2021/07/15 08:42:08;;;;;;;2.58;1.70;;;40.50;39.50;;;;;;5035501;28;20495;-43
2021/07/15 08:44:34;;;;;;;2.10;1.80;;;40.40;38.90;;;;;;5035605;28;20036;-43
2021/07/15 08:47:01;;;;;;;2.20;1.60;;;40.60;38.50;;;;;;5035609;28;20033;-43
2021/07/15 08:49:27;;;;;;;1.80;1.70;;;41.20;38.10;;;;;;5035495;28;20362;-45
2021/07/15 08:51:53;;;;;;;2.20;1.70;;;41.70;37.60;;;;;;5032866;28;20026;-44
2021/07/15 08:54:21;;;;;;;2.33;1.60;;;42.10;37.20;;;;;;5035466;28;20431;-43
2021/07/15 08:56:47;;;;;;;1.65;1.55;;;42.40;36.40;;;;;;5035446;28;20384;-47
2021/07/15 08:59:16;;;;;;;4.15;2.30;;;42.70;35.20;;;;;;5035343;28;20030;-43
2021/07/15 09:01:47;;;;;;;3.25;2.92;;;42.00;31.90;;;;;;5035421;28;20548;-46
2021/07/15 09:04:12;;;;;;;3.00;2.80;;;42.00;32.70;;;;;;5035248;28;20045;-43
2021/07/15 09:06:41;;;;;;;3.10;2.90;;;42.00;34.50;;;;;;5032789;28;20032;-45
2021/07/15 09:09:08;;;;;;;3.88;3.40;;;42.20;32.90;;;;;;5035129;28;20442;-43
2021/07/15 09:11:33;;;;;;;4.38;3.85;;;41.80;34.00;;;;;;5035241;28;20030;-43
2021/07/15 09:13:59;;;;;;;4.80;2.88;;;40.70;35.20;;;;;;5035094;28;20096;-44
2021/07/15 09:16:25;;;;;;;3.10;2.88;;;39.40;36.50;;;;;;5035168;28;20056;-43
2021/07/15 09:19:03;;;;;;;3.40;3.10;;;38.60;37.50;;;;;;5034967;28;20061;-45
2021/07/15 09:21:34;;;;;;;3.80;2.80;;;37.70;37.30;;;;;;5033678;28;20504;-44
2021/07/15 09:24:02;;;;;;;3.30;3.00;;;37.10;40.20;;;;;;5034960;28;20032;-46
2021/07/15 09:26:29;;;;;;;3.35;3.05;;;36.90;41.20;;;;;;5034935;28;20022;-45
2021/07/15 09:29:11;;;;;;;3.40;3.00;;;36.60;41.10;;;;;;5034797;28;20381;-44
2021/07/15 09:31:53;;;;;;;3.05;2.83;;;36.10;41.90;;;;;;5034861;28;20393;-43
2021/07/15 09:34:22;;;;;;;2.70;2.50;;;35.80;43.40;;;;;;5034753;28;20183;-43
2021/07/15 09:36:50;;;;;;;2.67;2.47;;;35.60;43.70;;;;;;5033456;28;20033;-42
2021/07/15 09:39:27;;;;;;;3.90;2.90;;;35.90;43.50;;;;;;5034809;28;20039;-44
2021/07/15 09:42:05;;;;;;;2.90;2.70;;;36.60;43.20;;;;;;5034602;28;20028;-43
2021/07/15 09:44:38;;;;;;;3.00;2.80;;;36.60;41.60;;;;;;5034403;28;20033;-45
2021/07/15 09:47:05;;;;;;;3.08;2.65;;;36.20;42.90;;;;;;5034467;28;20029;-43
2021/07/15 09:49:35;;;;;;;4.22;2.30;;;36.00;43.50;;;;;;5034428;28;20025;-47
2021/07/15 09:52:01;;;;;;;2.45;2.25;;;36.90;42.30;;;;;;5033058;28;20029;-44
2021/07/15 09:54:29;;;;;;;4.97;2.33;;;37.70;41.20;;;;;;5034363;28;20034;-45
2021/07/15 09:56:55;;;;;;;3.28;3.00;;;37.40;41.30;;;;;;5034276;28;20065;-44
2021/07/15 09:59:21;;;;;;;3.13;2.60;;;37.40;41.30;;;;;;5034140;28;20306;-44
2021/07/15 10:01:48;;;;;;;3.33;2.40;;;37.30;41.50;;;;;;5034177;28;20358;-46
2021/07/15 10:04:21;;;;;;;5.28;3.00;;;37.00;41.90;;;;;;5033593;28;20171;-43
2021/07/15 10:06:48;;;;;;;3.20;2.97;;;36.60;41.80;;;;;;5032898;28;20537;-46
2021/07/15 10:09:28;;;;;;;3.10;2.90;;;36.00;43.60;;;;;;5034043;28;20579;-44
2021/07/15 10:11:56;;;;;;;2.95;2.60;;;35.30;44.80;;;;;;5033960;28;20409;-42
2021/07/15 10:14:39;;;;;;;2.78;2.58;;;34.80;46.80;;;;;;5034005;28;20036;-46
2021/07/15 10:17:06;;;;;;;3.00;2.80;;;34.30;49.80;;;;;;5033903;28;20021;-45
2021/07/15 10:19:31;;;;;;;2.97;2.63;;;33.80;50.00;;;;;;5033776;28;20033;-46
2021/07/15 10:22:03;;;;;;;3.78;2.92;;;33.30;51.50;;;;;;5032451;28;20104;-44
2021/07/15 10:24:29;;;;;;;3.20;2.90;;;32.70;54.30;;;;;;5033796;28;20017;-48
2021/07/15 10:27:03;;;;;;;3.00;2.80;;;32.30;55.20;;;;;;5032614;28;20053;-42
2021/07/15 10:29:31;;;;;;;4.15;3.15;;;32.00;57.10;;;;;;5033746;28;20083;-45
2021/07/15 10:31:57;;;;;;;3.47;3.05;;;31.70;59.10;;;;;;5033628;28;20116;-48
2021/07/15 10:34:25;;;;;;;3.40;3.10;;;31.50;59.20;;;;;;5033617;28;20021;-42
2021/07/15 10:36:55;;;;;;;4.63;3.75;;;31.50;59.50;;;;;;5032308;28;20029;-44
2021/07/15 10:39:23;;;;;;;4.95;3.28;;;31.40;60.90;;;;;;5033467;28;20053;-44
2021/07/15 10:41:53;;;;;;;4.43;3.47;;;31.40;61.10;;;;;;5033604;28;20018;-46
2021/07/15 10:44:20;;;;;;;3.80;3.50;;;31.50;61.70;;;;;;5033387;28;20383;-45
2021/07/15 10:46:46;;;;;;;5.05;3.88;;;31.20;62.10;;;;;;5033444;28;20021;-44
2021/07/15 10:49:12;;;;;;;4.78;3.60;;;31.20;62.70;;;;;;5033203;28;20037;-47
2021/07/15 10:51:42;;;;;;;4.28;3.88;;;31.00;63.80;;;;;;5032085;28;20489;-43
2021/07/15 10:54:07;;;;;;;4.30;3.90;;;31.10;63.70;;;;;;5033333;28;20033;-44
2021/07/15 10:56:34;;;;;;;4.32;4.03;;;31.20;65.00;;;;;;5033234;28;20037;-42
2021/07/15 10:59:01;;;;;;;3.67;3.38;;;31.40;65.50;;;;;;5033106;28;20021;-44
2021/07/15 11:04:04;;;;;;;4.18;3.72;;;31.60;65.10;;;;;;5032891;28;20436;-44
2021/07/15 11:06:37;;;;;;;4.45;4.05;;;31.60;65.90;;;;;;5031800;28;20178;-42
2021/07/15 11:09:03;;;;;;;4.20;3.80;;;31.50;66.20;;;;;;5032977;28;20033;-42
2021/07/15 11:11:36;;;;;;;4.43;3.78;;;31.20;67.00;;;;;;5032990;28;20041;-42
2021/07/15 11:14:03;;;;;;;4.60;4.18;;;30.70;69.70;;;;;;5032987;28;20464;-44
2021/07/15 11:16:49;;;;;;;3.92;3.53;;;30.30;70.90;;;;;;5032370;28;20036;-45
2021/07/15 11:19:53;;;;;;;3.90;3.60;;;30.30;73.40;;;;;;5032823;28;20116;-47
2021/07/15 11:22:42;;;;;;;4.30;3.90;;;30.30;73.70;;;;;;5031816;28;20029;-48
2021/07/15 11:25:31;;;;;;;3.22;3.00;;;30.70;74.70;;;;;;5032875;28;20104;-43
2021/07/15 11:28:18;;;;;;;5.65;3.53;;;30.90;72.40;;;;;;5032816;28;20156;-44
2021/07/15 11:30:50;;;;;;;5.07;3.55;;;31.30;73.70;;;;;;5032825;28;20061;-44
2021/07/15 11:33:18;;;;;;;3.92;3.63;;;31.60;69.90;;;;;;5032703;28;20078;-42
2021/07/15 11:36:04;;;;;;;3.92;3.25;;;31.70;69.70;;;;;;5031451;28;20021;-42
2021/07/15 11:38:32;;;;;;;3.88;3.47;;;31.80;70.10;;;;;;5032648;28;20053;-44
2021/07/15 11:41:16;;;;;;;3.30;3.10;;;31.70;69.80;;;;;;5032727;28;20029;-43
2021/07/15 11:43:48;;;;;;;3.40;3.20;;;31.60;72.80;;;;;;5032599;28;20489;-44
2021/07/15 11:46:15;;;;;;;4.38;3.97;;;31.50;70.50;;;;;;5032513;28;20049;-44
2021/07/15 11:48:56;;;;;;;4.00;3.58;;;31.50;70.90;;;;;;5032581;28;20354;-45
2021/07/15 11:51:26;;;;;;;4.22;3.63;;;31.50;70.90;;;;;;5031226;28;20108;-42
2021/07/15 11:54:19;;;;;;;3.60;3.30;;;31.60;70.60;;;;;;5032490;28;20029;-45
2021/07/15 11:56:57;;;;;;;3.38;3.08;;;31.90;69.90;;;;;;5032652;28;20037;-42
2021/07/15 11:59:46;;;;;;;5.95;4.10;;;31.90;70.30;;;;;;5032459;28;20021;-42
2021/07/15 12:02:37;;;;;;;4.63;3.45;;;31.70;69.80;;;;;;5032408;28;20034;-42
2021/07/15 12:05:07;;;;;;;4.13;3.75;;;31.40;71.90;;;;;;5031209;28;20084;-43
2021/07/15 12:07:34;;;;;;;3.83;3.42;;;31.20;72.50;;;;;;5032495;28;20075;-42
2021/07/15 12:10:03;;;;;;;4.60;3.40;;;31.10;73.20;;;;;;5032507;28;20028;-47
2021/07/15 12:12:30;;;;;;;3.78;3.40;;;31.10;73.70;;;;;;5031126;28;20032;-46
2021/07/15 12:14:55;;;;;;;5.20;3.40;;;31.10;73.80;;;;;;5032389;28;20025;-42
2021/07/15 12:17:22;;;;;;;5.43;3.95;;;31.10;74.10;;;;;;5032153;28;20505;-44
2021/07/15 12:19:55;;;;;;;5.03;4.32;;;31.10;74.50;;;;;;5032368;28;20027;-44
2021/07/15 12:22:21;;;;;;;4.72;3.63;;;31.10;75.70;;;;;;5031846;28;20108;-42
2021/07/15 12:24:51;;;;;;;3.75;3.45;;;31.20;75.40;;;;;;5032225;28;20460;-44
2021/07/15 12:27:20;;;;;;;6.38;4.40;;;31.40;73.90;;;;;;5034695;28;20045;-44
2021/07/15 12:30:01;;;;;;;4.10;3.80;;;31.60;71.70;;;;;;5036051;28;20489;-43
2021/07/15 12:35:56;;;;;;;4.45;4.10;;;31.70;71.00;;;;;;5030242;23;20065;-40
2021/07/15 12:38:31;;;;;;;4.72;3.50;;;31.90;70.50;;;;;;5035778;28;20042;-40
2021/07/15 12:41:07;;;;;;;;;;;31.90;68.80;;;;;;5036314;28;20074;-44
2021/07/15 12:44:12;;;;;;;3.75;3.45;;;31.90;67.30;;;;;;5035754;28;19905;-41
2021/07/15 12:46:44;;;;;;;3.85;3.55;;;31.80;67.90;;;;;;5033252;28;20383;-40
2021/07/15 12:49:16;;;;;;;6.13;4.07;;;31.80;69.70;;;;;;5034315;28;20502;-40
2021/07/15 12:51:48;;;;;;;8.50;3.97;;;32.00;69.40;;;;;;5035773;28;20317;-40
2021/07/15 12:54:56;;;;;;;3.97;3.60;;;32.10;68.70;;;;;;5035579;28;20041;-42
2021/07/15 12:57:16;;;;;;;5.90;4.43;;;32.10;67.60;;;;;;5032268;28;20031;-42
2021/07/15 12:59:44;;;;;;;4.55;4.00;;;31.90;67.00;;;;;;5035416;28;20083;-40
2021/07/15 13:02:12;;;;;;;6.95;4.68;;;31.90;67.50;;;;;;5035388;28;20029;-40